createdAt,value
2023-04-27T00:00:30.118Z,23.60
2023-04-27T00:01:30.191Z,23.60
2023-04-27T00:02:30.698Z,23.60
2023-04-27T00:03:30.385Z,23.60
2023-04-27T00:04:30.433Z,23.60
2023-04-27T00:05:30.469Z,23.60
2023-04-27T00:06:30.376Z,23.60
2023-04-27T00:07:30.472Z,23.60
2023-04-27T00:08:30.510Z,23.61
2023-04-27T00:09:30.561Z,23.61
2023-04-27T00:10:30.600Z,23.61
2023-04-27T00:11:30.650Z,23.61
2023-04-27T00:12:30.708Z,23.61
2023-04-27T00:13:30.765Z,23.62
2023-04-27T00:14:30.802Z,23.61
2023-04-27T00:15:30.865Z,23.61
2023-04-27T00:16:31.001Z,23.61
2023-04-27T00:17:31.071Z,23.62
2023-04-27T00:18:31.027Z,23.61
2023-04-27T00:19:31.106Z,23.62
2023-04-27T00:20:31.150Z,23.62
2023-04-27T00:21:31.239Z,23.62
2023-04-27T00:22:31.267Z,23.62
2023-04-27T00:23:31.369Z,23.62
2023-04-27T00:24:31.394Z,23.62
2023-04-27T00:25:31.470Z,23.62
2023-04-27T00:26:31.547Z,23.62
2023-04-27T00:27:31.566Z,23.61
2023-04-27T00:28:31.611Z,23.61
2023-04-27T00:29:31.661Z,23.61
2023-04-27T00:30:31.699Z,23.61
2023-04-27T00:31:31.815Z,23.60
2023-04-27T00:32:31.877Z,23.60
2023-04-27T00:33:31.849Z,23.59
2023-04-27T00:34:31.916Z,23.59
2023-04-27T00:35:31.953Z,23.59
2023-04-27T00:36:32.000Z,23.59
2023-04-27T00:37:32.048Z,23.59
2023-04-27T00:38:32.090Z,23.59
2023-04-27T00:39:32.191Z,23.59
2023-04-27T00:40:32.179Z,23.59
2023-04-27T00:41:32.237Z,23.59
2023-04-27T00:42:32.295Z,23.58
2023-04-27T00:43:32.305Z,23.59
2023-04-27T00:44:32.368Z,23.59
2023-04-27T00:45:32.434Z,23.59
2023-04-27T00:46:32.487Z,23.59
2023-04-27T00:47:32.562Z,23.58
2023-04-27T00:48:32.543Z,23.59
2023-04-27T00:49:32.606Z,23.58
2023-04-27T00:50:32.632Z,23.58
2023-04-27T00:51:32.671Z,23.59
2023-04-27T00:52:32.735Z,23.59
2023-04-27T00:53:32.786Z,23.59
2023-04-27T00:54:32.818Z,23.59
2023-04-27T00:55:32.876Z,23.60
2023-04-27T00:56:32.905Z,23.60
2023-04-27T00:57:32.989Z,23.60
2023-04-27T00:58:33.057Z,23.59
2023-04-27T00:59:33.102Z,23.59
2023-04-27T01:00:33.124Z,23.60
2023-04-27T01:01:33.211Z,23.61
2023-04-27T01:02:33.434Z,23.61
2023-04-27T01:03:33.393Z,23.61
2023-04-27T01:04:33.355Z,23.61
2023-04-27T01:05:33.371Z,23.61
2023-04-27T01:06:33.421Z,23.61
2023-04-27T01:07:33.455Z,23.62
2023-04-27T01:08:33.506Z,23.61
2023-04-27T01:09:33.541Z,23.61
2023-04-27T01:10:33.626Z,23.61
2023-04-27T01:11:33.647Z,23.61
2023-04-27T01:12:33.688Z,23.61
2023-04-27T01:13:33.732Z,23.61
2023-04-27T01:14:33.809Z,23.60
2023-04-27T01:15:33.866Z,23.61
2023-04-27T01:16:33.911Z,23.61
2023-04-27T01:17:34.002Z,23.60
2023-04-27T01:18:33.978Z,23.60
2023-04-27T01:19:34.032Z,23.60
2023-04-27T01:20:34.308Z,23.60
2023-04-27T01:21:34.116Z,23.60
2023-04-27T01:22:34.187Z,23.60
2023-04-27T01:23:34.256Z,23.60
2023-04-27T01:24:34.282Z,23.59
2023-04-27T01:25:34.298Z,23.59
2023-04-27T01:26:34.352Z,23.60
2023-04-27T01:27:34.410Z,23.60
2023-04-27T01:28:34.450Z,23.60
2023-04-27T01:29:34.504Z,23.60
2023-04-27T01:30:34.554Z,23.60
2023-04-27T01:31:34.668Z,23.61
2023-04-27T01:32:34.617Z,23.60
2023-04-27T01:33:34.658Z,23.61
2023-04-27T01:34:34.710Z,23.61
2023-04-27T01:35:34.783Z,23.61
2023-04-27T01:36:34.813Z,23.61
2023-04-27T01:37:34.886Z,23.61
2023-04-27T01:38:34.906Z,23.61
2023-04-27T01:39:34.965Z,23.61
2023-04-27T01:40:34.996Z,23.60
2023-04-27T01:41:35.034Z,23.59
2023-04-27T01:42:35.092Z,23.59
2023-04-27T01:43:35.143Z,23.60
2023-04-27T01:44:35.182Z,23.59
2023-04-27T01:45:35.239Z,23.58
2023-04-27T01:46:35.378Z,23.59
2023-04-27T01:47:35.307Z,23.57
2023-04-27T01:48:35.341Z,23.58
2023-04-27T01:49:35.426Z,23.57
2023-04-27T01:50:35.436Z,23.58
2023-04-27T01:51:35.499Z,23.58
2023-04-27T01:52:35.554Z,23.56
2023-04-27T01:53:35.594Z,23.57
2023-04-27T01:54:35.692Z,23.56
2023-04-27T01:55:35.711Z,23.55
2023-04-27T01:56:35.734Z,23.56
2023-04-27T01:57:35.841Z,23.56
2023-04-27T01:58:35.867Z,23.56
2023-04-27T01:59:35.906Z,23.57
2023-04-27T02:00:35.924Z,23.57
2023-04-27T02:01:36.013Z,23.56
2023-04-27T02:02:36.163Z,23.57
2023-04-27T02:03:36.178Z,23.57
2023-04-27T02:04:36.367Z,23.56
2023-04-27T02:05:36.216Z,23.58
2023-04-27T02:06:36.253Z,23.58
2023-04-27T02:07:36.294Z,23.59
2023-04-27T02:08:36.484Z,23.59
2023-04-27T02:09:36.383Z,23.60
2023-04-27T02:10:36.429Z,23.60
2023-04-27T02:11:36.453Z,23.62
2023-04-27T02:12:36.536Z,23.62
2023-04-27T02:13:36.612Z,23.63
2023-04-27T02:14:36.642Z,23.63
2023-04-27T02:15:36.720Z,23.63
2023-04-27T02:16:36.852Z,23.64
2023-04-27T02:17:36.884Z,23.64
2023-04-27T02:18:36.923Z,23.66
2023-04-27T02:19:37.007Z,23.67
2023-04-27T02:20:37.037Z,23.68
2023-04-27T02:21:37.134Z,23.68
2023-04-27T02:22:37.207Z,23.70
2023-04-27T02:23:37.253Z,23.70
2023-04-27T02:24:37.326Z,23.71
2023-04-27T02:25:37.379Z,23.72
2023-04-27T02:26:37.430Z,23.73
2023-04-27T02:27:37.512Z,23.75
2023-04-27T02:28:37.542Z,23.76
2023-04-27T02:29:37.615Z,23.77
2023-04-27T02:30:37.643Z,23.78
2023-04-27T02:31:37.789Z,23.79
2023-04-27T02:32:37.808Z,23.80
2023-04-27T02:33:37.831Z,23.83
2023-04-27T02:34:37.863Z,23.83
2023-04-27T02:35:37.933Z,23.84
2023-04-27T02:36:37.953Z,23.85
2023-04-27T02:37:38.031Z,23.87
2023-04-27T02:38:38.069Z,23.86
2023-04-27T02:39:38.089Z,23.89
2023-04-27T02:40:38.145Z,23.90
2023-04-27T02:41:38.182Z,23.91
2023-04-27T02:42:38.224Z,23.92
2023-04-27T02:43:38.293Z,23.94
2023-04-27T02:44:38.317Z,23.96
2023-04-27T02:45:38.442Z,23.97
2023-04-27T02:46:38.456Z,23.98
2023-04-27T02:47:38.484Z,23.99
2023-04-27T02:48:38.433Z,24.00
2023-04-27T02:49:38.480Z,24.01
2023-04-27T02:50:38.554Z,24.02
2023-04-27T02:51:38.604Z,24.03
2023-04-27T02:52:38.635Z,24.04
2023-04-27T02:53:38.661Z,24.04
2023-04-27T02:54:38.688Z,24.05
2023-04-27T02:55:38.701Z,24.07
2023-04-27T02:56:38.738Z,24.08
2023-04-27T02:57:38.784Z,24.09
2023-04-27T02:58:38.809Z,24.10
2023-04-27T02:59:38.825Z,24.10
2023-04-27T03:00:38.851Z,24.11
2023-04-27T03:01:39.146Z,24.11
2023-04-27T03:02:39.153Z,24.12
2023-04-27T03:03:39.217Z,24.12
2023-04-27T03:04:39.073Z,24.12
2023-04-27T03:05:39.030Z,24.13
2023-04-27T03:06:39.078Z,24.14
2023-04-27T03:07:39.072Z,24.14
2023-04-27T03:08:39.125Z,24.14
2023-04-27T03:09:39.158Z,24.14
2023-04-27T03:10:39.198Z,24.16
2023-04-27T03:11:39.211Z,24.15
2023-04-27T03:12:39.248Z,24.16
2023-04-27T03:13:39.256Z,24.17
2023-04-27T03:14:39.290Z,24.17
2023-04-27T03:15:39.328Z,24.18
2023-04-27T03:16:39.390Z,24.18
2023-04-27T03:17:39.383Z,24.19
2023-04-27T03:18:39.406Z,24.19
2023-04-27T03:19:39.407Z,24.20
2023-04-27T03:20:39.463Z,24.20
2023-04-27T03:21:39.449Z,24.20
2023-04-27T03:22:39.498Z,24.21
2023-04-27T03:23:39.476Z,24.22
2023-04-27T03:24:39.486Z,24.22
2023-04-27T03:25:39.551Z,24.23
2023-04-27T03:26:39.522Z,24.23
2023-04-27T03:27:39.569Z,24.25
2023-04-27T03:28:39.598Z,24.25
2023-04-27T03:29:39.606Z,24.25
2023-04-27T03:30:39.605Z,24.25
2023-04-27T03:31:39.645Z,24.26
2023-04-27T03:32:39.684Z,24.26
2023-04-27T03:33:39.659Z,24.27
2023-04-27T03:34:39.663Z,24.27
2023-04-27T03:35:39.685Z,24.28
2023-04-27T03:36:39.662Z,24.28
2023-04-27T03:37:39.716Z,24.28
2023-04-27T03:38:39.695Z,24.29
2023-04-27T03:39:39.726Z,24.29
2023-04-27T03:40:39.704Z,24.30
2023-04-27T03:41:39.725Z,24.31
2023-04-27T03:42:39.726Z,24.31
2023-04-27T03:43:39.741Z,24.32
2023-04-27T03:44:39.832Z,24.33
2023-04-27T03:45:39.771Z,24.33
2023-04-27T03:46:39.737Z,24.32
2023-04-27T03:47:39.874Z,24.32
2023-04-27T03:48:39.782Z,24.33
2023-04-27T03:49:39.826Z,24.33
2023-04-27T03:50:39.794Z,24.33
2023-04-27T03:51:39.809Z,24.32
2023-04-27T03:52:39.833Z,24.32
2023-04-27T03:53:39.858Z,24.32
2023-04-27T03:54:39.871Z,24.31
2023-04-27T03:55:39.871Z,24.32
2023-04-27T03:56:39.886Z,24.32
2023-04-27T03:57:39.882Z,24.32
2023-04-27T03:58:39.927Z,24.32
2023-04-27T03:59:39.911Z,24.33
2023-04-27T04:00:40.012Z,24.32
2023-04-27T04:01:40.014Z,24.33
2023-04-27T04:02:40.073Z,24.33
2023-04-27T04:03:40.082Z,24.34
2023-04-27T04:04:40.214Z,24.35
2023-04-27T04:05:39.986Z,24.35
2023-04-27T04:06:40.006Z,24.36
2023-04-27T04:07:40.003Z,24.37
2023-04-27T04:08:39.988Z,24.37
2023-04-27T04:09:40.024Z,24.38
2023-04-27T04:10:40.012Z,24.38
2023-04-27T04:11:40.042Z,24.38
2023-04-27T04:12:40.017Z,24.39
2023-04-27T04:13:39.994Z,24.39
2023-04-27T04:14:40.066Z,24.40
2023-04-27T04:15:40.123Z,24.41
2023-04-27T04:16:40.068Z,24.42
2023-04-27T04:17:40.053Z,24.43
2023-04-27T04:18:40.017Z,24.42
2023-04-27T04:19:40.036Z,24.44
2023-04-27T04:20:40.048Z,24.43
2023-04-27T04:21:40.013Z,24.44
2023-04-27T04:22:40.023Z,24.44
2023-04-27T04:23:40.062Z,24.44
2023-04-27T04:24:40.083Z,24.44
2023-04-27T04:25:40.038Z,24.45
2023-04-27T04:26:40.035Z,24.45
2023-04-27T04:27:40.080Z,24.45
2023-04-27T04:28:40.047Z,24.45
2023-04-27T04:29:40.018Z,24.45
2023-04-27T04:30:40.035Z,24.45
2023-04-27T04:31:40.073Z,24.46
2023-04-27T04:32:40.082Z,24.45
2023-04-27T04:33:40.067Z,24.46
2023-04-27T04:34:40.034Z,24.46
2023-04-27T04:35:40.093Z,24.46
2023-04-27T04:36:40.032Z,24.46
2023-04-27T04:37:40.058Z,24.45
2023-04-27T04:38:40.042Z,24.45
2023-04-27T04:39:40.003Z,24.45
2023-04-27T04:40:40.058Z,24.46
2023-04-27T04:41:40.045Z,24.45
2023-04-27T04:42:40.012Z,24.46
2023-04-27T04:43:40.021Z,24.46
2023-04-27T04:44:40.000Z,24.45
2023-04-27T04:45:40.021Z,24.45
2023-04-27T04:46:40.086Z,24.45
2023-04-27T04:47:40.127Z,24.46
2023-04-27T04:48:40.025Z,24.44
2023-04-27T04:49:40.010Z,24.44
2023-04-27T04:50:40.019Z,24.45
2023-04-27T04:51:39.991Z,24.45
2023-04-27T04:52:40.010Z,24.45
2023-04-27T04:53:40.018Z,24.45
2023-04-27T04:54:40.016Z,24.45
2023-04-27T04:55:39.990Z,24.44
2023-04-27T04:56:39.984Z,24.44
2023-04-27T04:57:40.019Z,24.45
2023-04-27T04:58:40.028Z,24.45
2023-04-27T04:59:40.010Z,24.45
2023-04-27T05:00:46.995Z,24.45
2023-04-27T05:01:47.049Z,24.44
2023-04-27T05:02:40.120Z,24.43
2023-04-27T05:03:40.186Z,24.43
2023-04-27T05:04:40.072Z,24.43
2023-04-27T05:05:39.955Z,24.43
2023-04-27T05:06:39.957Z,24.43
2023-04-27T05:07:39.936Z,24.43
2023-04-27T05:08:39.919Z,24.44
2023-04-27T05:09:39.969Z,24.45
2023-04-27T05:10:39.926Z,24.45
2023-04-27T05:11:39.925Z,24.44
2023-04-27T05:12:39.927Z,24.45
2023-04-27T05:13:39.898Z,24.46
2023-04-27T05:14:39.902Z,24.46
2023-04-27T05:15:39.896Z,24.45
2023-04-27T05:16:40.002Z,24.46
2023-04-27T05:17:39.912Z,24.46
2023-04-27T05:18:39.879Z,24.46
2023-04-27T05:19:39.870Z,24.46
2023-04-27T05:20:39.856Z,24.46
2023-04-27T05:21:39.846Z,24.46
2023-04-27T05:22:39.838Z,24.47
2023-04-27T05:23:39.821Z,24.47
2023-04-27T05:24:39.876Z,24.46
2023-04-27T05:25:39.832Z,24.46
2023-04-27T05:26:39.818Z,24.47
2023-04-27T05:27:39.794Z,24.47
2023-04-27T05:28:39.803Z,24.46
2023-04-27T05:29:39.802Z,24.46
2023-04-27T05:30:39.805Z,24.47
2023-04-27T05:31:39.826Z,24.46
2023-04-27T05:32:40.270Z,24.46
2023-04-27T05:33:39.820Z,24.46
2023-04-27T05:34:39.802Z,24.45
2023-04-27T05:35:39.748Z,24.44
2023-04-27T05:36:39.759Z,24.44
2023-04-27T05:37:39.754Z,24.42
2023-04-27T05:38:39.740Z,24.40
2023-04-27T05:39:39.732Z,24.39
2023-04-27T05:40:39.710Z,24.36
2023-04-27T05:41:39.700Z,24.34
2023-04-27T05:42:39.741Z,24.32
2023-04-27T05:43:39.751Z,24.29
2023-04-27T05:44:39.724Z,24.27
2023-04-27T05:45:39.732Z,24.26
2023-04-27T05:46:46.698Z,24.24
2023-04-27T05:47:39.875Z,24.22
2023-04-27T05:48:39.667Z,24.23
2023-04-27T05:49:39.663Z,24.25
2023-04-27T05:50:39.654Z,24.27
2023-04-27T05:51:39.628Z,24.31
2023-04-27T05:52:39.640Z,24.34
2023-04-27T05:53:39.631Z,24.38
2023-04-27T05:54:39.657Z,24.42
2023-04-27T05:55:39.630Z,24.44
2023-04-27T05:56:39.660Z,24.45
2023-04-27T05:57:40.360Z,24.47
2023-04-27T05:58:39.607Z,24.47
2023-04-27T05:59:39.590Z,24.46
2023-04-27T06:00:39.597Z,24.46
2023-04-27T06:01:39.571Z,24.49
2023-04-27T06:02:39.680Z,24.51
2023-04-27T06:03:39.778Z,24.53
2023-04-27T06:04:39.630Z,24.54
2023-04-27T06:05:39.600Z,24.57
2023-04-27T06:06:39.528Z,24.59
2023-04-27T06:07:39.559Z,24.60
2023-04-27T06:08:39.585Z,24.63
2023-04-27T06:09:39.529Z,24.65
2023-04-27T06:10:39.497Z,24.70
2023-04-27T06:11:39.498Z,24.75
2023-04-27T06:12:39.492Z,24.78
2023-04-27T06:13:39.752Z,24.80
2023-04-27T06:14:39.497Z,24.85
2023-04-27T06:15:39.577Z,24.87
2023-04-27T06:16:39.471Z,24.91
2023-04-27T06:17:39.511Z,24.96
2023-04-27T06:18:39.440Z,24.99
2023-04-27T06:19:39.464Z,25.03
2023-04-27T06:20:39.442Z,25.06
2023-04-27T06:21:39.433Z,25.08
2023-04-27T06:22:39.463Z,25.08
2023-04-27T06:23:39.418Z,25.10
2023-04-27T06:24:39.490Z,25.11
2023-04-27T06:25:39.433Z,25.13
2023-04-27T06:26:39.399Z,25.16
2023-04-27T06:27:39.407Z,25.18
2023-04-27T06:28:39.379Z,25.21
2023-04-27T06:29:39.387Z,25.24
2023-04-27T06:30:39.755Z,25.27
2023-04-27T06:31:39.459Z,25.28
2023-04-27T06:32:39.404Z,25.24
2023-04-27T06:33:39.802Z,25.19
2023-04-27T06:34:39.418Z,25.14
2023-04-27T06:35:39.473Z,25.07
2023-04-27T06:36:39.525Z,24.99
2023-04-27T06:37:39.536Z,24.93
2023-04-27T06:38:39.792Z,24.86
2023-04-27T06:39:39.663Z,24.80
2023-04-27T06:40:39.756Z,24.76
2023-04-27T06:41:39.786Z,24.68
2023-04-27T06:42:39.929Z,24.60
2023-04-27T06:43:40.350Z,24.54
2023-04-27T06:44:39.869Z,24.49
2023-04-27T06:45:39.882Z,24.45
2023-04-27T06:46:39.936Z,24.39
2023-04-27T06:47:39.910Z,24.34
2023-04-27T06:48:39.885Z,24.29
2023-04-27T06:49:39.895Z,24.24
2023-04-27T06:50:39.910Z,24.19
2023-04-27T06:51:39.960Z,24.15
2023-04-27T06:52:39.947Z,24.15
2023-04-27T06:53:40.058Z,24.16
2023-04-27T06:54:40.008Z,24.18
2023-04-27T06:55:43.028Z,24.21
2023-04-27T06:56:40.076Z,24.25
2023-04-27T06:57:40.021Z,24.29
2023-04-27T06:58:40.023Z,24.30
2023-04-27T06:59:40.000Z,24.34
2023-04-27T07:00:39.989Z,24.38
2023-04-27T07:01:40.087Z,24.42
2023-04-27T07:02:40.118Z,24.45
2023-04-27T07:03:40.292Z,24.46
2023-04-27T07:04:39.992Z,24.47
2023-04-27T07:05:39.981Z,24.49
2023-04-27T07:06:39.951Z,24.51
2023-04-27T07:07:39.914Z,24.50
2023-04-27T07:08:39.936Z,24.51
2023-04-27T07:09:39.933Z,24.48
2023-04-27T07:10:39.902Z,24.46
2023-04-27T07:11:39.908Z,24.43
2023-04-27T07:12:39.887Z,24.42
2023-04-27T07:13:39.905Z,24.42
2023-04-27T07:14:39.909Z,24.42
2023-04-27T07:15:39.980Z,24.43
2023-04-27T07:16:40.011Z,24.43
2023-04-27T07:17:39.910Z,24.43
2023-04-27T07:18:40.997Z,24.43
2023-04-27T07:19:40.716Z,24.40
2023-04-27T07:20:39.855Z,24.39
2023-04-27T07:21:39.867Z,24.37
2023-04-27T07:22:39.818Z,24.37
2023-04-27T07:23:39.821Z,24.36
2023-04-27T07:24:39.824Z,24.34
2023-04-27T07:25:39.838Z,24.35
2023-04-27T07:26:39.857Z,24.32
2023-04-27T07:27:39.804Z,24.32
2023-04-27T07:28:39.825Z,24.32
2023-04-27T07:29:39.791Z,24.31
2023-04-27T07:30:39.819Z,24.32
2023-04-27T07:31:39.823Z,24.31
2023-04-27T07:32:39.843Z,24.32
2023-04-27T07:33:39.800Z,24.33
2023-04-27T07:34:51.728Z,24.33
2023-04-27T07:35:40.717Z,24.30
2023-04-27T07:36:39.735Z,24.26
2023-04-27T07:37:39.718Z,24.20
2023-04-27T07:38:39.698Z,24.14
2023-04-27T07:39:39.814Z,24.07
2023-04-27T07:40:39.700Z,24.00
2023-04-27T07:41:39.690Z,23.89
2023-04-27T07:42:39.694Z,23.77
2023-04-27T07:43:39.672Z,23.70
2023-04-27T07:44:39.675Z,23.67
2023-04-27T07:45:39.690Z,23.68
2023-04-27T07:46:39.704Z,23.68
2023-04-27T07:47:39.779Z,23.71
2023-04-27T07:48:39.840Z,23.76
2023-04-27T07:49:39.848Z,23.83
2023-04-27T07:50:39.901Z,23.89
2023-04-27T07:51:39.941Z,23.96
2023-04-27T07:52:39.958Z,24.04
2023-04-27T07:53:39.997Z,24.11
2023-04-27T07:54:39.983Z,24.15
2023-04-27T07:55:40.037Z,24.19
2023-04-27T07:56:40.015Z,24.23
2023-04-27T07:57:40.056Z,24.25
2023-04-27T07:58:40.073Z,24.27
2023-04-27T07:59:40.096Z,24.30
2023-04-27T08:00:40.123Z,24.32
2023-04-27T08:01:40.080Z,24.34
2023-04-27T08:02:40.278Z,24.35
2023-04-27T08:03:40.299Z,24.38
2023-04-27T08:04:40.442Z,24.39
2023-04-27T08:05:40.326Z,24.42
2023-04-27T08:06:40.444Z,24.43
2023-04-27T08:07:44.633Z,24.44
2023-04-27T08:08:41.043Z,24.45
2023-04-27T08:09:40.903Z,24.47
2023-04-27T08:10:40.050Z,24.48
2023-04-27T08:11:40.082Z,24.50
2023-04-27T08:12:40.096Z,24.50
2023-04-27T08:13:40.030Z,24.51
2023-04-27T08:14:40.010Z,24.53
2023-04-27T08:15:40.015Z,24.53
2023-04-27T08:16:40.027Z,24.53
2023-04-27T08:17:40.004Z,24.52
2023-04-27T08:18:39.993Z,24.53
2023-04-27T08:19:40.015Z,24.55
2023-04-27T08:20:39.983Z,24.56
2023-04-27T08:21:39.944Z,24.57
2023-04-27T08:22:39.968Z,24.58
2023-04-27T08:23:39.997Z,24.59
2023-04-27T08:24:39.933Z,24.59
2023-04-27T08:25:39.943Z,24.58
2023-04-27T08:26:39.937Z,24.55
2023-04-27T08:27:39.919Z,24.48
2023-04-27T08:28:39.915Z,24.40
2023-04-27T08:29:39.880Z,24.31
2023-04-27T08:30:39.910Z,24.24
2023-04-27T08:31:39.991Z,24.22
2023-04-27T08:32:40.046Z,24.23
2023-04-27T08:33:39.927Z,24.24
2023-04-27T08:34:40.306Z,24.25
2023-04-27T08:35:40.029Z,24.28
2023-04-27T08:36:40.031Z,24.26
2023-04-27T08:37:40.041Z,24.26
2023-04-27T08:38:40.040Z,24.24
2023-04-27T08:39:40.285Z,24.24
2023-04-27T08:40:40.086Z,24.26
2023-04-27T08:41:40.091Z,24.28
2023-04-27T08:42:40.124Z,24.28
2023-04-27T08:43:40.160Z,24.26
2023-04-27T08:44:40.170Z,24.23
2023-04-27T08:45:40.180Z,24.20
2023-04-27T08:46:40.223Z,24.15
2023-04-27T08:47:43.921Z,24.11
2023-04-27T08:48:40.246Z,24.06
2023-04-27T08:49:40.249Z,24.01
2023-04-27T08:50:40.217Z,23.97
2023-04-27T08:51:40.193Z,23.90
2023-04-27T08:52:40.229Z,23.88
2023-04-27T08:53:40.197Z,23.87
2023-04-27T08:54:40.182Z,23.88
2023-04-27T08:55:40.196Z,23.90
2023-04-27T08:56:40.225Z,23.91
2023-04-27T08:57:40.160Z,23.90
2023-04-27T08:58:40.131Z,23.90
2023-04-27T08:59:40.176Z,23.90
2023-04-27T09:00:40.141Z,23.89
2023-04-27T09:01:40.204Z,23.90
2023-04-27T09:02:40.289Z,23.91
2023-04-27T09:03:40.226Z,23.93
2023-04-27T09:04:40.294Z,23.93
2023-04-27T09:05:46.590Z,23.94
2023-04-27T09:06:41.124Z,23.94
2023-04-27T09:07:40.099Z,23.96
2023-04-27T09:08:40.134Z,23.98
2023-04-27T09:09:40.064Z,23.99
2023-04-27T09:10:40.310Z,24.00
2023-04-27T09:11:40.098Z,24.00
2023-04-27T09:12:40.083Z,24.00
2023-04-27T09:13:40.081Z,23.99
2023-04-27T09:14:40.064Z,23.98
2023-04-27T09:15:40.090Z,24.00
2023-04-27T09:16:40.120Z,24.00
2023-04-27T09:17:40.053Z,24.00
2023-04-27T09:18:39.993Z,23.99
2023-04-27T09:19:40.056Z,23.95
2023-04-27T09:20:40.115Z,23.91
2023-04-27T09:21:40.159Z,23.88
2023-04-27T09:22:40.201Z,23.85
2023-04-27T09:23:40.227Z,23.84
2023-04-27T09:24:40.305Z,23.87
2023-04-27T09:25:40.842Z,23.92
2023-04-27T09:26:40.363Z,23.98
2023-04-27T09:27:40.411Z,24.04
2023-04-27T09:28:40.413Z,24.08
2023-04-27T09:29:40.440Z,24.14
2023-04-27T09:30:40.484Z,24.19
2023-04-27T09:31:40.542Z,24.26
2023-04-27T09:32:40.518Z,24.31
2023-04-27T09:33:40.502Z,24.34
2023-04-27T09:34:40.511Z,24.33
2023-04-27T09:35:40.830Z,24.33
2023-04-27T09:36:40.539Z,24.31
2023-04-27T09:37:40.547Z,24.32
2023-04-27T09:38:40.533Z,24.32
2023-04-27T09:39:40.553Z,24.33
2023-04-27T09:40:40.552Z,24.35
2023-04-27T09:41:40.609Z,24.36
2023-04-27T09:42:40.614Z,24.35
2023-04-27T09:43:40.581Z,24.34
2023-04-27T09:44:40.957Z,24.33
2023-04-27T09:45:40.636Z,24.34
2023-04-27T09:46:40.604Z,24.38
2023-04-27T09:47:40.648Z,24.42
2023-04-27T09:48:40.624Z,24.47
2023-04-27T09:49:40.639Z,24.50
2023-04-27T09:50:40.831Z,24.52
2023-04-27T09:51:40.603Z,24.52
2023-04-27T09:52:40.600Z,24.51
2023-04-27T09:53:40.603Z,24.51
2023-04-27T09:54:40.613Z,24.51
2023-04-27T09:55:40.608Z,24.49
2023-04-27T09:56:40.587Z,24.48
2023-04-27T09:57:40.615Z,24.48
2023-04-27T09:58:40.590Z,24.49
2023-04-27T09:59:40.601Z,24.49
2023-04-27T10:00:40.839Z,24.48
2023-04-27T10:01:40.629Z,24.47
2023-04-27T10:02:52.171Z,24.48
2023-04-27T10:03:41.617Z,24.46
2023-04-27T10:04:40.772Z,24.45
2023-04-27T10:05:41.545Z,24.44
2023-04-27T10:06:40.556Z,24.44
2023-04-27T10:07:40.532Z,24.45
2023-04-27T10:08:40.553Z,24.47
2023-04-27T10:09:40.546Z,24.48
2023-04-27T10:10:40.527Z,24.50
2023-04-27T10:11:40.528Z,24.49
2023-04-27T10:12:40.493Z,24.51
2023-04-27T10:13:40.514Z,24.51
2023-04-27T10:14:40.483Z,24.52
2023-04-27T10:15:40.495Z,24.53
2023-04-27T10:16:40.548Z,24.52
2023-04-27T10:17:40.487Z,24.52
2023-04-27T10:18:40.464Z,24.52
2023-04-27T10:19:40.517Z,24.51
2023-04-27T10:20:40.457Z,24.50
2023-04-27T10:21:40.433Z,24.49
2023-04-27T10:22:40.426Z,24.48
2023-04-27T10:23:40.445Z,24.48
2023-04-27T10:24:40.410Z,24.48
2023-04-27T10:25:40.535Z,24.47
2023-04-27T10:26:40.380Z,24.46
2023-04-27T10:27:40.394Z,24.47
2023-04-27T10:28:40.379Z,24.49
2023-04-27T10:29:40.399Z,24.50
2023-04-27T10:30:40.445Z,24.53
2023-04-27T10:31:40.375Z,24.56
2023-04-27T10:32:40.359Z,24.60
2023-04-27T10:33:40.338Z,24.64
2023-04-27T10:34:40.349Z,24.65
2023-04-27T10:35:40.885Z,24.67
2023-04-27T10:36:40.459Z,24.66
2023-04-27T10:37:40.544Z,24.67
2023-04-27T10:38:40.583Z,24.66
2023-04-27T10:39:48.010Z,24.58
2023-04-27T10:40:41.891Z,24.57
2023-04-27T10:41:40.624Z,24.57
2023-04-27T10:42:40.650Z,24.56
2023-04-27T10:43:40.578Z,24.54
2023-04-27T10:44:40.608Z,24.52
2023-04-27T10:45:40.558Z,24.49
2023-04-27T10:46:40.889Z,24.48
2023-04-27T10:47:40.572Z,24.44
2023-04-27T10:48:40.606Z,24.42
2023-04-27T10:49:40.555Z,24.38
2023-04-27T10:50:40.560Z,24.35
2023-04-27T10:51:40.548Z,24.33
2023-04-27T10:52:40.539Z,24.26
2023-04-27T10:53:40.566Z,24.19
2023-04-27T10:54:40.516Z,24.14
2023-04-27T10:55:40.581Z,24.09
2023-04-27T10:56:40.886Z,24.04
2023-04-27T10:57:40.624Z,24.05
2023-04-27T10:58:48.690Z,24.06
2023-04-27T10:59:41.667Z,24.08
2023-04-27T11:00:40.627Z,24.02
2023-04-27T11:01:40.643Z,23.84
2023-04-27T11:02:40.727Z,23.83
2023-04-27T11:03:40.762Z,23.84
2023-04-27T11:04:40.643Z,23.87
2023-04-27T11:05:40.631Z,23.92
2023-04-27T11:06:40.597Z,23.96
2023-04-27T11:07:40.617Z,24.01
2023-04-27T11:08:40.602Z,24.00
2023-04-27T11:09:40.597Z,23.99
2023-04-27T11:10:40.577Z,23.99
2023-04-27T11:11:40.579Z,23.96
2023-04-27T11:12:40.625Z,23.92
2023-04-27T11:13:40.762Z,23.89
2023-04-27T11:14:40.733Z,23.89
2023-04-27T11:15:40.807Z,23.90
2023-04-27T11:16:40.814Z,23.92
2023-04-27T11:17:40.886Z,23.93
2023-04-27T11:18:40.916Z,23.95
2023-04-27T11:19:40.898Z,23.95
2023-04-27T11:20:40.981Z,23.96
2023-04-27T11:21:41.406Z,23.91
2023-04-27T11:22:41.069Z,23.90
2023-04-27T11:23:41.105Z,23.90
2023-04-27T11:24:41.115Z,23.85
2023-04-27T11:25:41.178Z,23.83
2023-04-27T11:26:41.246Z,23.82
2023-04-27T11:27:41.256Z,23.83
2023-04-27T11:28:41.298Z,23.86
2023-04-27T11:29:41.874Z,23.87
2023-04-27T11:30:41.414Z,23.90
2023-04-27T11:31:41.957Z,23.95
2023-04-27T11:32:41.528Z,23.97
2023-04-27T11:33:41.517Z,24.00
2023-04-27T11:34:41.541Z,24.02
2023-04-27T11:35:41.586Z,24.04
2023-04-27T11:36:41.880Z,24.07
2023-04-27T11:37:41.668Z,24.09
2023-04-27T11:38:41.679Z,24.12
2023-04-27T11:39:41.720Z,24.12
2023-04-27T11:40:41.652Z,24.15
2023-04-27T11:41:41.914Z,24.16
2023-04-27T11:42:41.716Z,24.17
2023-04-27T11:43:41.731Z,24.19
2023-04-27T11:44:41.722Z,24.21
2023-04-27T11:45:41.726Z,24.23
2023-04-27T11:46:41.769Z,24.24
2023-04-27T11:47:41.768Z,24.27
2023-04-27T11:48:41.771Z,24.29
2023-04-27T11:49:41.779Z,24.31
2023-04-27T11:50:41.780Z,24.33
2023-04-27T11:51:41.904Z,24.33
2023-04-27T11:52:41.769Z,24.33
2023-04-27T11:53:41.776Z,24.34
2023-04-27T11:54:41.782Z,24.35
2023-04-27T11:55:41.795Z,24.36
2023-04-27T11:56:41.748Z,24.37
2023-04-27T11:57:41.762Z,24.37
2023-04-27T11:58:42.345Z,24.37
2023-04-27T11:59:41.761Z,24.37
2023-04-27T12:00:41.775Z,24.38
2023-04-27T12:01:41.780Z,24.39
2023-04-27T12:02:42.086Z,24.39
2023-04-27T12:04:41.896Z,24.41
2023-04-27T12:05:41.832Z,24.42
2023-04-27T12:06:41.754Z,24.43
2023-04-27T12:07:41.743Z,24.44
2023-04-27T12:08:41.725Z,24.44
2023-04-27T12:09:41.705Z,24.44
2023-04-27T12:10:41.715Z,24.45
2023-04-27T12:11:41.719Z,24.45
2023-04-27T12:12:41.746Z,24.45
2023-04-27T12:13:41.805Z,24.45
2023-04-27T12:14:41.739Z,24.45
2023-04-27T12:15:41.760Z,24.45
2023-04-27T12:16:41.758Z,24.44
2023-04-27T12:17:41.811Z,24.43
2023-04-27T12:18:41.755Z,24.43
2023-04-27T12:19:41.756Z,24.43
2023-04-27T12:20:41.746Z,24.42
2023-04-27T12:21:41.758Z,24.42
2023-04-27T12:22:41.743Z,24.43
2023-04-27T12:23:41.748Z,24.43
2023-04-27T12:24:41.757Z,24.44
2023-04-27T12:25:41.749Z,24.43
2023-04-27T12:26:41.749Z,24.43
2023-04-27T12:27:41.729Z,24.41
2023-04-27T12:28:41.754Z,24.41
2023-04-27T12:29:41.746Z,24.41
2023-04-27T12:30:41.882Z,24.40
2023-04-27T12:31:41.828Z,24.39
2023-04-27T12:32:41.747Z,24.39
2023-04-27T12:33:41.702Z,24.39
2023-04-27T12:34:41.703Z,24.40
2023-04-27T12:35:41.694Z,24.40
2023-04-27T12:36:41.721Z,24.41
2023-04-27T12:37:41.687Z,24.41
2023-04-27T12:38:41.702Z,24.41
2023-04-27T12:39:41.691Z,24.42
2023-04-27T12:40:41.679Z,24.43
2023-04-27T12:41:41.701Z,24.44
2023-04-27T12:42:41.707Z,24.47
2023-04-27T12:43:41.721Z,24.49
2023-04-27T12:44:41.732Z,24.49
2023-04-27T12:45:41.739Z,24.52
2023-04-27T12:46:41.790Z,24.53
2023-04-27T12:48:41.845Z,24.54
2023-04-27T12:49:41.778Z,24.55
2023-04-27T12:50:41.810Z,24.54
2023-04-27T12:51:41.892Z,24.53
2023-04-27T12:52:41.784Z,24.51
2023-04-27T12:53:41.736Z,24.50
2023-04-27T12:54:41.737Z,24.49